Time;durP1;ratioP1;P1;durP2;ratioP2;P2;SDS_P1;SDS_P2;PMS_P1;PMS_P2;Temp;Humidity;BMP_temperature;BMP_pressure;BME280_temperature;BME280_humidity;BME280_pressure;Samples;Min_cycle;Max_cycle;Signal;HPM_P1;HPM_P2
2021/10/04 00:00:16;;;;;;;;;;;;;;;20.29;56.14;101833.00;5022607;28;1515;-63
2021/10/04 00:02:43;;;;;;;;;;;;;;;20.29;56.71;101816.88;5025602;28;1907;-57
2021/10/04 00:05:12;;;;;;;;;;;;;;;20.30;56.57;101829.34;5046501;28;1595;-58
2021/10/04 00:07:38;;;;;;;;;;;;;;;20.30;57.46;101815.91;5039325;28;1284;-62
2021/10/04 00:10:07;;;;;;;;;;;;;;;20.29;56.79;101814.19;5048106;28;1520;-58
2021/10/04 00:12:34;;;;;;;;;;;;;;;20.31;57.10;101806.03;5026429;28;1771;-58
2021/10/04 00:15:00;;;;;;;;;;;;;;;20.29;56.08;101824.09;5033955;28;1572;-63
2021/10/04 00:17:27;;;;;;;;;;;;;;;20.31;56.50;101816.75;5020582;28;1581;-58
2021/10/04 00:19:54;;;;;;;;;;;;;;;20.29;56.98;101814.19;5048762;28;991;-63
2021/10/04 00:22:21;;;;;;;;;;;;;;;20.33;56.30;101825.56;5039999;28;1903;-63
2021/10/04 00:24:48;;;;;;;;;;;;;;;20.29;57.38;101810.66;5050351;28;1554;-58
2021/10/04 00:27:15;;;;;;;;;;;;;;;20.27;56.16;101829.56;5045391;28;1485;-63
2021/10/04 00:29:41;;;;;;;;;;;;;;;20.31;56.08;101840.94;5033644;28;1601;-58
2021/10/04 00:32:08;;;;;;;;;;;;;;;20.31;56.54;101827.50;5037641;28;1609;-63
2021/10/04 00:34:34;;;;;;;;;;;;;;;20.25;56.96;101827.03;5045424;28;1424;-57
2021/10/04 00:37:01;;;;;;;;;;;;;;;20.26;56.02;101830.56;5045292;28;1099;-58
2021/10/04 00:39:30;;;;;;;;;;;;;;;20.28;55.98;101836.66;5031148;28;1603;-58
2021/10/04 00:41:57;;;;;;;;;;;;;;;20.30;56.64;101839.25;5022402;28;1902;-63
2021/10/04 00:44:23;;;;;;;;;;;;;;;20.25;56.78;101813.59;5027222;28;1488;-57
2021/10/04 00:46:50;;;;;;;;;;;;;;;20.29;56.80;101824.09;5044514;28;1647;-63
2021/10/04 00:49:16;;;;;;;;;;;;;;;20.29;56.24;101832.16;5047899;28;1560;-58
2021/10/04 00:51:43;;;;;;;;;;;;;;;20.28;56.37;101817.88;5047204;28;1708;-63
2021/10/04 00:54:09;;;;;;;;;;;;;;;20.25;56.21;101827.03;5029946;28;1853;-63
2021/10/04 00:56:38;;;;;;;;;;;;;;;20.27;57.15;101802.72;5036399;28;1437;-57
2021/10/04 00:59:04;;;;;;;;;;;;;;;20.26;56.87;101830.56;5037003;28;1531;-57
2021/10/04 01:01:31;;;;;;;;;;;;;;;20.26;56.28;101830.56;5033214;28;1890;-58
2021/10/04 01:03:58;;;;;;;;;;;;;;;20.24;56.22;101825.31;5047307;28;1684;-59
2021/10/04 01:06:24;;;;;;;;;;;;;;;20.23;56.10;101814.66;5046127;28;1019;-58
2021/10/04 01:08:51;;;;;;;;;;;;;;;20.23;56.33;101804.81;5030667;28;1747;-63
2021/10/04 01:11:18;;;;;;;;;;;;;;;20.26;57.05;101809.91;5033193;28;1448;-63
2021/10/04 01:13:46;;;;;;;;;;;;;;;20.24;56.10;101811.88;5047350;28;1585;-57
2021/10/04 01:16:13;;;;;;;;;;;;;;;20.26;56.29;101815.28;5046113;28;1065;-58
2021/10/04 01:18:39;;;;;;;;;;;;;;;20.23;57.24;101804.81;5040205;28;1483;-57
2021/10/04 01:21:07;;;;;;;;;;;;;;;20.24;56.15;101802.97;5037623;28;1507;-57
2021/10/04 01:23:34;;;;;;;;;;;;;;;20.22;56.36;101786.97;5024594;28;1973;-58
2021/10/04 01:26:01;;;;;;;;;;;;;;;20.23;56.32;101783.31;5029650;28;1632;-63
2021/10/04 01:28:28;;;;;;;;;;;;;;;20.22;56.36;101794.16;5042435;28;1401;-62
2021/10/04 01:30:55;;;;;;;;;;;;;;;20.25;56.45;101792.09;5025624;28;1600;-58
2021/10/04 01:33:22;;;;;;;;;;;;;;;20.22;57.19;101786.97;5025918;28;1230;-58
2021/10/04 01:35:48;;;;;;;;;;;;;;;20.25;56.78;101812.72;5046337;28;1604;-62
2021/10/04 01:38:16;;;;;;;;;;;;;;;20.21;57.10;101796.00;5038882;28;1782;-58
2021/10/04 01:40:44;;;;;;;;;;;;;;;20.17;56.49;101799.88;5042837;28;1596;-63
2021/10/04 01:43:11;;;;;;;;;;;;;;;20.17;57.16;101789.13;5026044;28;1906;-57
2021/10/04 01:45:38;;;;;;;;;;;;;;;20.20;56.21;101807.72;5046684;28;1616;-63
2021/10/04 01:48:05;;;;;;;;;;;;;;;20.27;56.24;101818.81;5046558;28;2190;-57
2021/10/04 01:50:33;;;;;;;;;;;;;;;20.21;55.99;101809.44;5023923;28;1755;-63
2021/10/04 01:53:00;;;;;;;;;;;;;;;20.22;56.18;101813.81;5033594;28;1479;-63
2021/10/04 01:55:28;;;;;;;;;;;;;;;20.21;56.89;101793.31;5025532;28;1381;-63
2021/10/04 01:57:54;;;;;;;;;;;;;;;20.25;57.15;101796.59;5046964;28;1076;-59
2021/10/04 02:00:21;;;;;;;;;;;;;;;20.21;56.82;101805.88;5023389;28;1571;-58
2021/10/04 02:02:49;;;;;;;;;;;;;;;20.20;57.13;101794.28;5042941;28;1977;-58
2021/10/04 02:05:16;;;;;;;;;;;;;;;20.23;56.84;101811.97;5043926;28;1539;-63
2021/10/04 02:07:43;;;;;;;;;;;;;;;20.20;56.95;101794.28;5035960;28;1515;-63
2021/10/04 02:10:10;;;;;;;;;;;;;;;20.18;56.07;101817.72;5015971;28;1048;-64
2021/10/04 02:12:38;;;;;;;;;;;;;;;20.18;56.35;101816.88;5023175;28;1712;-63
2021/10/04 02:15:05;;;;;;;;;;;;;;;20.19;56.09;101807.81;5045970;28;1723;-63
2021/10/04 02:17:33;;;;;;;;;;;;;;;20.19;56.82;101786.34;5035561;28;1716;-58
2021/10/04 02:20:00;;;;;;;;;;;;;;;20.19;56.13;101815.88;5045849;28;1035;-58
2021/10/04 02:22:27;;;;;;;;;;;;;;;20.18;55.96;101806.97;5023189;28;1973;-57
2021/10/04 02:24:54;;;;;;;;;;;;;;;20.17;56.35;101797.19;5045531;28;1542;-57
2021/10/04 02:27:20;;;;;;;;;;;;;;;20.17;56.04;101824.03;5043984;28;1428;-62
2021/10/04 02:29:48;;;;;;;;;;;;;;;20.15;56.22;101817.09;5043080;28;1584;-58
2021/10/04 02:32:15;;;;;;;;;;;;;;;20.20;56.99;101815.78;5031020;28;1519;-58
2021/10/04 02:34:41;;;;;;;;;;;;;;;20.17;55.83;101820.50;5033755;28;1571;-58
2021/10/04 02:37:08;;;;;;;;;;;;;;;20.19;56.03;101807.81;5041981;28;1079;-63
2021/10/04 02:39:35;;;;;;;;;;;;;;;20.19;56.23;101824.81;5040250;28;1456;-63
2021/10/04 02:42:02;;;;;;;;;;;;;;;20.15;55.90;101815.25;5050630;28;1980;-63
2021/10/04 02:44:28;;;;;;;;;;;;;;;20.18;56.06;101790.00;5043991;28;1560;-63
2021/10/04 02:46:56;;;;;;;;;;;;;;;20.19;56.06;101800.66;5044367;28;1559;-63
2021/10/04 02:49:23;;;;;;;;;;;;;;;20.14;57.12;101799.28;5045402;28;1143;-63
2021/10/04 02:51:50;;;;;;;;;;;;;;;20.19;56.64;101791.72;5022931;28;1614;-57
2021/10/04 02:54:16;;;;;;;;;;;;;;;20.16;55.73;101813.44;5041364;28;1768;-58
2021/10/04 02:56:43;;;;;;;;;;;;;;;20.18;56.50;101817.72;5043262;28;1581;-58
2021/10/04 02:59:13;;;;;;;;;;;;;;;20.17;56.02;101826.72;5043376;28;1608;-57
2021/10/04 03:01:40;;;;;;;;;;;;;;;20.20;56.72;101831.03;5042622;28;1521;-63
2021/10/04 03:04:08;;;;;;;;;;;;;;;20.18;56.96;101815.03;5040994;28;1910;-57
2021/10/04 03:06:34;;;;;;;;;;;;;;;20.14;56.55;101824.28;5043752;28;1029;-58
2021/10/04 03:09:01;;;;;;;;;;;;;;;20.14;56.16;101800.13;5028936;28;1692;-63
2021/10/04 03:11:28;;;;;;;;;;;;;;;20.11;55.66;101821.84;5032095;28;1495;-58
2021/10/04 03:13:54;;;;;;;;;;;;;;;20.17;56.08;101825.88;5044568;28;1451;-63
2021/10/04 03:16:21;;;;;;;;;;;;;;;20.13;55.84;101830.63;5044045;28;999;-57
2021/10/04 03:18:48;;;;;;;;;;;;;;;20.12;55.78;101814.66;5028177;28;1541;-57
2021/10/04 03:21:16;;;;;;;;;;;;;;;20.12;55.69;101820.88;5022624;28;1644;-63
2021/10/04 03:23:42;;;;;;;;;;;;;;;20.13;56.60;101797.56;5027318;28;1981;-57
2021/10/04 03:26:09;;;;;;;;;;;;;;;20.12;56.13;101826.25;5022656;28;1577;-63
2021/10/04 03:28:36;;;;;;;;;;;;;;;20.12;56.93;101814.66;5022164;28;1562;-63
2021/10/04 03:31:02;;;;;;;;;;;;;;;20.14;56.77;101820.75;5023649;28;1515;-57
2021/10/04 03:33:29;;;;;;;;;;;;;;;20.13;56.92;101824.41;5023674;28;1408;-63
2021/10/04 03:35:55;;;;;;;;;;;;;;;20.10;56.31;101832.72;5047237;28;1087;-58
2021/10/04 03:38:23;;;;;;;;;;;;;;;20.09;56.04;101834.53;5035375;28;1778;-63
2021/10/04 03:40:50;;;;;;;;;;;;;;;20.09;56.56;101817.56;5031084;28;1534;-63
2021/10/04 03:43:17;;;;;;;;;;;;;;;20.10;56.44;101827.34;5047180;28;1979;-63
2021/10/04 03:45:44;;;;;;;;;;;;;;;20.10;56.78;101825.50;5048173;28;1569;-63
2021/10/04 03:48:11;;;;;;;;;;;;;;;20.11;55.78;101832.56;5024899;28;983;-58
2021/10/04 03:50:38;;;;;;;;;;;;;;;20.14;55.95;101835.03;5049536;28;1760;-63
2021/10/04 03:53:04;;;;;;;;;;;;;;;20.12;55.57;101839.66;5038982;28;1463;-63
2021/10/04 03:55:32;;;;;;;;;;;;;;;20.09;56.14;101810.34;5046357;28;1581;-58
2021/10/04 03:57:59;;;;;;;;;;;;;;;20.09;56.53;101829.16;5044358;28;1451;-57
2021/10/04 04:00:28;;;;;;;;;;;;;;;20.08;55.74;101832.81;5049216;28;1044;-63
2021/10/04 04:02:55;;;;;;;;;;;;;;;20.13;55.74;101846.75;5048257;28;1914;-63
2021/10/04 04:05:22;;;;;;;;;;;;;;;20.10;55.46;101836.25;5047840;28;1724;-58
2021/10/04 04:07:49;;;;;;;;;;;;;;;20.09;55.71;101845.25;5046035;28;1479;-57
2021/10/04 04:10:16;;;;;;;;;;;;;;;20.08;55.90;101838.19;5046311;28;1628;-63
2021/10/04 04:12:45;;;;;;;;;;;;;;;20.10;55.74;101847.00;5041189;28;1565;-63
2021/10/04 04:15:12;;;;;;;;;;;;;;;20.10;55.78;101852.34;5048296;28;1114;-63
2021/10/04 04:17:39;;;;;;;;;;;;;;;20.08;55.48;101845.41;5044714;28;1767;-63
2021/10/04 04:20:06;;;;;;;;;;;;;;;20.05;56.04;101843.78;5050256;28;1475;-63
2021/10/04 04:22:32;;;;;;;;;;;;;;;20.09;56.43;101866.75;5018199;28;1906;-63
2021/10/04 04:24:59;;;;;;;;;;;;;;;20.06;55.64;101861.63;5047284;28;1736;-63
2021/10/04 04:27:25;;;;;;;;;;;;;;;20.04;55.74;101851.00;5048241;28;1794;-57
2021/10/04 04:29:53;;;;;;;;;;;;;;;20.10;55.45;101873.84;5027054;28;1540;-58
2021/10/04 04:32:20;;;;;;;;;;;;;;;20.09;55.43;101871.25;5027685;28;1593;-58
2021/10/04 04:34:46;;;;;;;;;;;;;;;20.10;56.43;101862.25;5028297;28;1592;-58
2021/10/04 04:37:13;;;;;;;;;;;;;;;20.08;56.57;101858.84;5022817;28;1056;-58
2021/10/04 04:39:39;;;;;;;;;;;;;;;20.05;56.67;101860.78;5044631;28;1487;-63
2021/10/04 04:42:07;;;;;;;;;;;;;;;20.06;55.36;101872.38;5034140;28;1628;-57
2021/10/04 04:44:34;;;;;;;;;;;;;;;20.07;56.23;101879.44;5028392;28;1906;-63
2021/10/04 04:47:02;;;;;;;;;;;;;;;20.05;56.61;101865.25;5045266;28;1538;-58
2021/10/04 04:49:28;;;;;;;;;;;;;;;20.04;55.58;101860.88;5026414;28;1280;-57
2021/10/04 04:51:56;;;;;;;;;;;;;;;20.07;56.38;101868.69;5047962;28;1888;-58
2021/10/04 04:54:22;;;;;;;;;;;;;;;20.05;55.93;101876.00;5043653;28;1476;-63
2021/10/04 04:56:50;;;;;;;;;;;;;;;20.05;55.90;101859.91;5034014;28;1527;-63
2021/10/04 04:59:16;;;;;;;;;;;;;;;20.03;55.65;101872.59;5027108;28;1570;-63
2021/10/04 05:01:43;;;;;;;;;;;;;;;20.05;56.69;101870.63;5024093;28;1616;-57
2021/10/04 05:04:11;;;;;;;;;;;;;;;20.06;55.77;101862.47;5033841;28;1983;-63
2021/10/04 05:06:38;;;;;;;;;;;;;;;20.08;56.49;101877.63;5056422;28;1076;-63
2021/10/04 05:09:05;;;;;;;;;;;;;;;20.08;56.17;101873.09;5038132;28;1711;-63
2021/10/04 05:11:31;;;;;;;;;;;;;;;20.08;55.48;101881.16;5036021;28;1706;-57
2021/10/04 05:13:58;;;;;;;;;;;;;;;20.08;55.53;101869.56;5033768;28;1563;-57
2021/10/04 05:16:24;;;;;;;;;;;;;;;20.08;55.80;101886.53;5033142;28;1885;-63
2021/10/04 05:18:51;;;;;;;;;;;;;;;20.07;55.79;101884.81;5041846;28;1480;-63
2021/10/04 05:21:19;;;;;;;;;;;;;;;20.11;55.57;101890.81;5028377;28;1080;-62
2021/10/04 05:23:46;;;;;;;;;;;;;;;20.11;56.60;101878.22;5039547;28;1910;-58
2021/10/04 05:26:12;;;;;;;;;;;;;;;20.11;56.56;101875.53;5041230;28;1569;-63
2021/10/04 05:28:39;;;;;;;;;;;;;;;20.11;55.44;101870.16;5024244;28;1452;-63
2021/10/04 05:31:05;;;;;;;;;;;;;;;20.15;55.19;101886.91;5029779;28;1586;-57
2021/10/04 05:33:32;;;;;;;;;;;;;;;20.16;56.47;101878.75;5043594;28;1631;-58
2021/10/04 05:35:59;;;;;;;;;;;;;;;20.17;55.26;101888.50;5016703;28;1040;-63
2021/10/04 05:38:27;;;;;;;;;;;;;;;20.18;55.45;101881.31;5024843;28;1491;-63
2021/10/04 05:40:53;;;;;;;;;;;;;;;20.21;55.17;101884.63;5045903;28;1577;-63
2021/10/04 05:43:20;;;;;;;;;;;;;;;20.20;56.20;101872.16;5045456;28;1971;-58
2021/10/04 05:45:46;;;;;;;;;;;;;;;20.23;56.31;101890.75;5044568;28;1511;-62
2021/10/04 05:48:13;;;;;;;;;;;;;;;20.27;55.57;101894.91;5016496;28;1864;-57
2021/10/04 05:50:39;;;;;;;;;;;;;;;20.29;55.31;101900.16;5045153;28;1520;-63
2021/10/04 05:53:06;;;;;;;;;;;;;;;20.30;55.25;101887.59;5033118;28;1720;-57
2021/10/04 05:55:34;;;;;;;;;;;;;;;20.31;56.22;101871.34;5026094;28;1472;-63
2021/10/04 05:58:00;;;;;;;;;;;;;;;20.35;55.13;101869.28;5041387;28;1662;-63
2021/10/04 06:00:27;;;;;;;;;;;;;;;20.39;55.25;101892.25;5016491;28;962;-62
2021/10/04 06:02:54;;;;;;;;;;;;;;;20.39;55.00;101893.13;5044403;28;1906;-57
2021/10/04 06:05:20;;;;;;;;;;;;;;;20.45;55.04;101899.84;5024585;28;1869;-63
2021/10/04 06:07:47;;;;;;;;;;;;;;;20.41;55.37;101887.59;5033834;28;1573;-63
2021/10/04 06:10:15;;;;;;;;;;;;;;;20.43;55.27;101891.03;5015836;28;1056;-57
2021/10/04 06:12:43;;;;;;;;;;;;;;;20.43;55.81;101896.41;5046219;28;1946;-57
2021/10/04 06:15:11;;;;;;;;;;;;;;;20.47;55.13;101905.94;5023539;28;1480;-63
2021/10/04 06:17:38;;;;;;;;;;;;;;;20.51;55.23;101909.25;5044872;28;1704;-58
2021/10/04 06:20:05;;;;;;;;;;;;;;;20.50;56.01;101902.19;5026903;28;1996;-63
2021/10/04 06:22:32;;;;;;;;;;;;;;;20.48;55.25;101901.44;5033324;28;1988;-57
2021/10/04 06:24:58;;;;;;;;;;;;;;;20.52;55.67;101903.78;5046359;28;2207;-63
2021/10/04 06:27:25;;;;;;;;;;;;;;;20.57;56.33;101920.41;5023744;28;1728;-57
2021/10/04 06:29:53;;;;;;;;;;;;;;;20.53;54.99;101908.19;5025286;28;1779;-57
2021/10/04 06:32:19;;;;;;;;;;;;;;;20.57;55.10;101909.66;5036707;28;1472;-63
2021/10/04 06:34:46;;;;;;;;;;;;;;;20.54;55.92;101914.41;5033050;28;1722;-61
2021/10/04 06:37:12;;;;;;;;;;;;;;;20.51;55.91;101902.03;5030417;28;1008;-58
2021/10/04 06:39:39;;;;;;;;;;;;;;;20.57;55.43;101916.84;5024463;28;1735;-63
2021/10/04 06:42:06;;;;;;;;;;;;;;;20.54;56.26;101907.19;5028397;28;1589;-57
2021/10/04 06:44:32;;;;;;;;;;;;;;;20.58;55.25;101921.25;5036926;28;1910;-62
2021/10/04 06:47:01;;;;;;;;;;;;;;;20.54;55.59;101919.78;5043375;28;1538;-63
2021/10/04 06:49:27;;;;;;;;;;;;;;;20.54;55.33;101920.63;5042760;28;1558;-63
2021/10/04 06:51:54;;;;;;;;;;;;;;;20.54;55.63;101911.72;5042991;28;1114;-58
2021/10/04 06:54:21;;;;;;;;;;;;;;;20.57;56.34;101915.03;5028967;28;1720;-63
2021/10/04 06:56:47;;;;;;;;;;;;;;;20.56;56.31;101918.69;5022889;28;1515;-57
2021/10/04 06:59:14;;;;;;;;;;;;;;;20.58;55.37;101921.25;5023164;28;1550;-62
2021/10/04 07:01:40;;;;;;;;;;;;;;;20.61;55.57;101923.72;5024003;28;1706;-58
2021/10/04 07:04:08;;;;;;;;;;;;;;;20.62;55.62;101929.00;5019136;28;1989;-57
2021/10/04 07:06:35;;;;;;;;;;;;;;;20.62;56.08;101903.97;5026444;28;1082;-63
2021/10/04 07:09:02;;;;;;;;;;;;;;;20.61;56.00;101911.19;5038892;28;1794;-58
2021/10/04 07:11:29;;;;;;;;;;;;;;;20.60;55.51;101922.88;5036403;28;1640;-57
2021/10/04 07:13:56;;;;;;;;;;;;;;;20.68;56.42;101937.56;5028997;28;1437;-58
2021/10/04 07:16:23;;;;;;;;;;;;;;;20.64;56.40;101927.03;5044788;28;1609;-58
2021/10/04 07:18:50;;;;;;;;;;;;;;;20.72;56.09;101923.78;5041816;28;1663;-58
2021/10/04 07:21:18;;;;;;;;;;;;;;;20.70;56.30;101919.50;5023816;28;997;-57
2021/10/04 07:23:45;;;;;;;;;;;;;;;20.71;55.06;101888.94;5019994;28;1906;-57
2021/10/04 07:26:12;;;;;;;;;;;;;;;20.71;56.55;101922.06;5021972;28;1515;-63
2021/10/04 07:28:39;;;;;;;;;;;;;;;20.72;55.45;101922.91;5031563;28;1577;-57
2021/10/04 07:31:05;;;;;;;;;;;;;;;20.69;56.39;101923.16;5039999;28;1559;-63
2021/10/04 07:33:32;;;;;;;;;;;;;;;20.71;55.23;101910.44;5020457;28;1546;-57
2021/10/04 07:35:59;;;;;;;;;;;;;;;20.71;55.60;101900.56;5041582;28;1068;-63
2021/10/04 07:38:27;;;;;;;;;;;;;;;20.73;55.34;101909.38;5049073;28;1519;-58
2021/10/04 07:40:53;;;;;;;;;;;;;;;20.74;56.54;101926.34;5039885;28;1576;-58
2021/10/04 07:43:20;;;;;;;;;;;;;;;20.74;55.24;101900.31;5025775;28;1906;-57
2021/10/04 07:45:46;;;;;;;;;;;;;;;20.74;56.56;101921.81;5042094;28;1520;-57
2021/10/04 07:48:13;;;;;;;;;;;;;;;20.71;55.92;101908.63;5015038;28;987;-57
2021/10/04 07:50:44;;;;;;;;;;;;;;;20.75;56.22;101895.78;5019971;28;1735;-57
2021/10/04 07:53:10;;;;;;;;;;;;;;;20.77;56.08;101896.53;5029994;28;1632;-57
2021/10/04 07:55:38;;;;;;;;;;;;;;;20.74;56.48;101891.41;5026047;28;1591;-62
2021/10/04 07:58:05;;;;;;;;;;;;;;;20.75;55.85;101898.47;5043698;28;1467;-57
2021/10/04 08:00:32;;;;;;;;;;;;;;;20.76;55.66;101906.44;5045893;28;970;-63
2021/10/04 08:02:58;;;;;;;;;;;;;;;20.78;55.64;101901.78;5044444;28;1732;-57
2021/10/04 08:05:25;;;;;;;;;;;;;;;20.77;56.42;101900.09;5027661;28;1946;-58
2021/10/04 08:07:52;;;;;;;;;;;;;;;20.76;56.39;101903.75;5019326;28;1600;-57
2021/10/04 08:10:18;;;;;;;;;;;;;;;20.79;56.07;101886.50;5025448;28;1507;-63
2021/10/04 08:12:46;;;;;;;;;;;;;;;20.77;55.76;101904.59;5023288;28;1526;-58
2021/10/04 08:15:13;;;;;;;;;;;;;;;20.78;56.18;101898.25;5027286;28;1553;-63
2021/10/04 08:17:39;;;;;;;;;;;;;;;20.78;56.20;101885.66;5043476;28;1015;-57
2021/10/04 08:20:08;;;;;;;;;;;;;;;20.80;55.47;101899.00;5041683;28;1452;-62
2021/10/04 08:22:35;;;;;;;;;;;;;;;20.79;56.42;101891.88;5039300;28;981;-57
2021/10/04 08:25:01;;;;;;;;;;;;;;;20.77;55.86;101894.72;5047562;28;1977;-63
2021/10/04 08:27:28;;;;;;;;;;;;;;;20.81;56.65;101908.75;5048252;28;1592;-63
2021/10/04 08:29:56;;;;;;;;;;;;;;;20.81;56.40;101903.38;5027394;28;1571;-58
2021/10/04 08:32:22;;;;;;;;;;;;;;;20.82;56.43;101894.34;5043137;28;1428;-57
2021/10/04 08:34:49;;;;;;;;;;;;;;;20.86;55.76;101893.13;5045425;28;1624;-58
2021/10/04 08:37:16;;;;;;;;;;;;;;;20.83;55.75;101896.03;5042427;28;1067;-63
2021/10/04 08:39:42;;;;;;;;;;;;;;;20.83;56.37;101901.41;5025903;28;1806;-63
2021/10/04 08:42:09;;;;;;;;;;;;;;;20.86;56.35;101898.50;5029391;28;1479;-57
2021/10/04 08:44:36;;;;;;;;;;;;;;;20.85;56.20;101876.16;5038925;28;1906;-58
2021/10/04 08:47:07;;;;;;;;;;;;;;;20.86;55.42;101882.38;5035007;28;1483;-58
2021/10/04 08:49:34;;;;;;;;;;;;;;;20.85;56.41;101876.16;5036327;28;1447;-63
2021/10/04 08:52:01;;;;;;;;;;;;;;;20.85;56.69;101891.44;5044700;28;994;-57
2021/10/04 08:54:29;;;;;;;;;;;;;;;20.85;56.75;101878.00;5044895;28;1841;-62
2021/10/04 08:56:56;;;;;;;;;;;;;;;20.85;56.20;101891.44;5044640;28;1534;-57
2021/10/04 08:59:23;;;;;;;;;;;;;;;20.83;56.48;101874.53;5046333;28;1679;-62
2021/10/04 09:01:49;;;;;;;;;;;;;;;20.85;56.68;101881.53;5043996;28;1591;-63
2021/10/04 09:04:21;;;;;;;;;;;;;;;20.86;56.57;101882.38;5040685;28;1906;-58
2021/10/04 09:06:48;;;;;;;;;;;;;;;20.86;56.69;101877.00;5017696;28;1081;-57
2021/10/04 09:09:15;;;;;;;;;;;;;;;20.86;56.68;101875.16;5036481;28;1684;-63
2021/10/04 09:11:43;;;;;;;;;;;;;;;20.87;55.87;101878.72;5034931;28;1534;-57
2021/10/04 09:14:12;;;;;;;;;;;;;;;20.85;56.85;101880.69;5034429;28;1628;-57
2021/10/04 09:16:55;;;;;;;;;;;;;;;20.85;56.57;101878.00;5044908;28;1444;-63
2021/10/04 09:19:23;;;;;;;;;;;;;;;20.88;55.76;101868.81;5035683;28;1534;-63
2021/10/04 09:22:06;;;;;;;;;;;;;;;20.88;56.02;101880.41;5040571;28;1088;-59
2021/10/04 09:24:33;;;;;;;;;;;;;;;20.89;55.50;101874.06;5030576;28;1906;-63
2021/10/04 09:27:00;;;;;;;;;;;;;;;20.89;56.65;101852.56;5028958;28;1577;-58
2021/10/04 09:29:26;;;;;;;;;;;;;;;20.90;56.61;101873.09;5025148;28;1566;-57
2021/10/04 09:31:53;;;;;;;;;;;;;;;20.89;56.38;101855.25;5033890;28;1265;-63
2021/10/04 09:34:20;;;;;;;;;;;;;;;20.91;55.98;101853.31;5045299;28;1616;-57
2021/10/04 09:36:49;;;;;;;;;;;;;;;20.90;56.51;101862.31;5039377;28;978;-58
2021/10/04 09:39:18;;;;;;;;;;;;;;;20.89;56.40;101866.00;5048671;28;1622;-58
2021/10/04 09:42:00;;;;;;;;;;;;;;;20.93;56.16;101842.41;5033696;28;1972;-63
2021/10/04 09:44:27;;;;;;;;;;;;;;;20.96;55.76;101861.00;5025396;28;2000;-63
2021/10/04 09:47:08;;;;;;;;;;;;;;;20.99;55.84;101839.22;5033888;28;1487;-58
2021/10/04 09:49:45;;;;;;;;;;;;;;;21.02;55.34;101834.47;5045296;28;1488;-58
2021/10/04 09:52:13;;;;;;;;;;;;;;;20.99;55.42;101823.09;5038901;28;1047;-63
2021/10/04 09:54:43;;;;;;;;;;;;;;;21.00;56.28;101857.94;5028199;28;1774;-63
2021/10/04 09:57:16;;;;;;;;;;;;;;;21.03;56.02;101819.19;5029828;28;1596;-58
2021/10/04 09:59:44;;;;;;;;;;;;;;;21.01;56.43;101851.59;5039312;28;1709;-57
2021/10/04 10:02:12;;;;;;;;;;;;;;;21.02;55.67;101820.16;5040526;28;1632;-59
2021/10/04 10:04:40;;;;;;;;;;;;;;;21.06;55.20;101827.84;5044507;28;1975;-63
2021/10/04 10:07:07;;;;;;;;;;;;;;;21.08;55.69;101821.50;5041840;28;929;-57
2021/10/04 10:09:36;;;;;;;;;;;;;;;21.06;55.40;101803.66;5044133;28;1719;-58
2021/10/04 10:12:04;;;;;;;;;;;;;;;21.11;55.86;101815.88;5034660;28;1551;-63
2021/10/04 10:14:38;;;;;;;;;;;;;;;21.08;55.53;101808.06;5025882;28;1471;-57
2021/10/04 10:17:04;;;;;;;;;;;;;;;21.07;56.27;101812.59;5016099;28;1095;-63
2021/10/04 10:19:32;;;;;;;;;;;;;;;21.07;56.20;101804.53;5028638;28;1584;-58
2021/10/04 10:22:10;;;;;;;;;;;;;;;21.05;56.53;101790.34;5043046;28;1052;-62
2021/10/04 10:24:39;;;;;;;;;;;;;;;21.11;56.15;101797.03;5044502;28;1979;-58
2021/10/04 10:27:05;;;;;;;;;;;;;;;21.10;56.34;101790.81;5042920;28;1420;-57
2021/10/04 10:29:33;;;;;;;;;;;;;;;21.10;55.45;101784.59;5044009;28;1643;-63
2021/10/04 10:32:12;;;;;;;;;;;;;;;21.09;55.58;101766.72;5033708;28;1600;-63
2021/10/04 10:34:48;;;;;;;;;;;;;;;21.09;56.38;101769.41;5024611;28;1562;-57
2021/10/04 10:37:16;;;;;;;;;;;;;;;21.07;56.31;101774.94;5021162;28;1057;-58
2021/10/04 10:39:45;;;;;;;;;;;;;;;21.10;55.51;101785.44;5042276;28;1524;-63
2021/10/04 10:42:12;;;;;;;;;;;;;;;21.02;56.24;101764.53;5024456;28;1565;-63
2021/10/04 10:44:53;;;;;;;;;;;;;;;21.10;55.77;101763.06;5021457;28;1911;-58
2021/10/04 10:47:45;;;;;;;;;;;;;;;21.06;56.45;101749.84;5041243;28;1471;-63
2021/10/04 10:50:13;;;;;;;;;;;;;;;21.10;55.97;101755.84;5043025;28;1817;-63
2021/10/04 10:52:40;;;;;;;;;;;;;;;21.11;56.36;101745.94;5053415;28;2005;-62
2021/10/04 10:55:22;;;;;;;;;;;;;;;21.10;56.28;101746.94;5015436;28;1122;-62
2021/10/04 10:58:06;;;;;;;;;;;;;;;21.03;56.35;101738.53;5023299;28;1414;-63
2021/10/04 11:00:33;;;;;;;;;;;;;;;21.05;56.32;101748.16;5026409;28;1076;-58
2021/10/04 11:03:01;;;;;;;;;;;;;;;21.05;56.70;101732.03;5037852;28;1731;-63
2021/10/04 11:05:47;;;;;;;;;;;;;;;21.05;56.63;101737.41;5030574;28;1971;-63
2021/10/04 11:08:15;;;;;;;;;;;;;;;21.06;55.89;101738.25;5021922;28;1384;-63
2021/10/04 11:10:56;;;;;;;;;;;;;;;21.08;56.79;101743.50;5044162;28;1881;-58
2021/10/04 11:13:25;;;;;;;;;;;;;;;21.02;55.94;101715.28;5040515;28;1447;-58
2021/10/04 11:15:53;;;;;;;;;;;;;;;21.02;56.02;101726.88;5042831;28;1568;-63
2021/10/04 11:18:20;;;;;;;;;;;;;;;21.03;56.43;101725.91;5015105;28;1593;-63
2021/10/04 11:20:47;;;;;;;;;;;;;;;20.99;56.32;101719.09;5045649;28;1040;-57
2021/10/04 11:23:15;;;;;;;;;;;;;;;21.00;56.99;101723.47;5031004;28;1530;-58
2021/10/04 11:25:42;;;;;;;;;;;;;;;21.02;56.37;101712.59;5022941;28;1910;-62
2021/10/04 11:28:10;;;;;;;;;;;;;;;21.02;55.68;101700.00;5024049;28;1472;-57
2021/10/04 11:30:53;;;;;;;;;;;;;;;21.06;56.75;101712.22;5023289;28;1044;-57
2021/10/04 11:33:20;;;;;;;;;;;;;;;21.06;56.34;101711.38;5014588;28;1276;-63
2021/10/04 11:35:56;;;;;;;;;;;;;;;21.03;56.77;101711.63;5045635;28;975;-63
2021/10/04 11:38:23;;;;;;;;;;;;;;;21.05;56.14;101689.00;5031332;28;1538;-57
2021/10/04 11:40:49;;;;;;;;;;;;;;;21.04;56.46;101703.41;5023392;28;1511;-63
2021/10/04 11:43:16;;;;;;;;;;;;;;;21.08;56.56;101693.25;5018133;28;1625;-61
2021/10/04 11:45:43;;;;;;;;;;;;;;;21.05;55.80;101683.63;5043910;28;1975;-58
2021/10/04 11:48:11;;;;;;;;;;;;;;;21.04;56.97;101689.97;5045314;28;1028;-63
2021/10/04 11:50:44;;;;;;;;;;;;;;;21.02;57.03;101675.78;5042313;28;1336;-58
2021/10/04 11:53:12;;;;;;;;;;;;;;;21.02;56.89;101678.47;5034643;28;1328;-57
2021/10/04 11:55:40;;;;;;;;;;;;;;;21.01;56.90;101665.19;5042502;28;1526;-63
2021/10/04 11:58:11;;;;;;;;;;;;;;;21.04;55.84;101665.75;5046702;28;1569;-61
2021/10/04 12:00:45;;;;;;;;;;;;;;;21.05;55.90;101675.56;5027582;28;1205;-58
2021/10/04 12:03:23;;;;;;;;;;;;;;;21.01;57.03;101657.97;5049244;28;1380;-58
2021/10/04 12:05:51;;;;;;;;;;;;;;;21.05;56.08;101672.88;5049479;28;1999;-57
2021/10/04 12:08:19;;;;;;;;;;;;;;;21.03;56.69;101669.44;5034802;28;1464;-58
2021/10/04 12:10:48;;;;;;;;;;;;;;;21.03;57.02;101653.31;5031457;28;1483;-58
2021/10/04 12:13:16;;;;;;;;;;;;;;;21.02;55.96;101656.97;5042008;28;1851;-58
2021/10/04 12:15:43;;;;;;;;;;;;;;;21.02;56.64;101667.72;5047989;28;1596;-63
2021/10/04 12:18:18;;;;;;;;;;;;;;;21.01;56.88;101652.59;5017971;28;1024;-58
2021/10/04 12:20:45;;;;;;;;;;;;;;;21.00;56.35;101667.00;5025819;28;1853;-58
2021/10/04 12:23:16;;;;;;;;;;;;;;;21.00;56.98;101653.56;5039329;28;1815;-57
2021/10/04 12:25:43;;;;;;;;;;;;;;;21.00;56.22;101667.00;5044333;28;1906;-58
2021/10/04 12:28:10;;;;;;;;;;;;;;;21.00;57.04;101661.63;5022601;28;1574;-63
2021/10/04 12:30:47;;;;;;;;;;;;;;;21.01;56.79;101659.81;5028707;28;1024;-57
2021/10/04 12:33:14;;;;;;;;;;;;;;;21.02;56.85;101662.34;5029472;28;1068;-57
2021/10/04 12:35:42;;;;;;;;;;;;;;;20.99;56.64;101662.63;5048199;28;1704;-63
2021/10/04 12:38:10;;;;;;;;;;;;;;;21.00;56.71;101666.16;5038657;28;1596;-60
2021/10/04 12:40:44;;;;;;;;;;;;;;;21.01;56.45;101660.66;5040987;28;1592;-59
2021/10/04 12:43:12;;;;;;;;;;;;;;;21.00;56.09;101658.94;5026984;28;1329;-58
2021/10/04 12:45:39;;;;;;;;;;;;;;;21.00;56.33;101661.63;5048057;28;1976;-58
2021/10/04 12:48:07;;;;;;;;;;;;;;;21.02;56.84;101672.25;5043978;28;1909;-63
2021/10/04 12:50:35;;;;;;;;;;;;;;;20.99;57.27;101656.38;5031634;28;1699;-63